Airfield :
LOGIN :

Register | Disclaimer

   EN    FR    IT 

 










Legend :    VFR   Marginal VFR   IFR   Intensive IFR   Very Intensive IFR
Visi :
Ceiling :
>= 8 km
>= 3000ft
5 to 8 km
1000 to 3000 ft
1500m to 5 km
500 to 1000 ft
800 to 1500m
200 to 500 ft
< 800m
< 200 ft
Symbols :   Thunderstorms  Fog  Heavy snow  Heavy precipitations  Wind > 20 kt
SIGMETs :     Misc.  Thunderstorms  Icing  Turbulence  Mountain Waves  Volcanic Ashes







- Airport Elevation : -15 ft
- IATA code : RTM


EHRD - Rotterdam Zestienhoven

EXPIRED METARs :
  • 210255Z AUTO 09001KT 3000 BR NCD 15/15 Q1020 NOSIG
  • 210525Z AUTO 12003KT 070V210 9000 FEW033 15/15 Q1020 NOSIG
  • 210455Z AUTO VRB01KT 5000 BR SCT035 SCT041 15/15 Q1020 NOSIG

TAF TAF EHRD
Valid from the 21 at 06:00 until the 22 at 12:00 UTC


210433Z 2106/2212 16004KT CAVOK
PROB30 2106/2107 5000 BR
BECMG 2110/2113 29007KT SCT025
BECMG 2120/2123 21003KT
BECMG 2208/2211 25010KT
No reported NOTAMs for that airfield.



MET'MAP, your aeronautical weather chart ! - Copyright ORBIFLY December 2007 - Disclaimer

ORBIFLY MET'MAP TEAM :

Programming & Development : Alexandra Zaïnal
Concept & Development : Baudouin d'Aumeries
Co-Development & Prog : Marc-Olivier Méhu
Technical & hardware support : Manuel Goepfert

Contact : metmap@orbifly.com




SOURCES & CREDITS :

   NOAA